createdAt,value
2022-08-10T00:00:11.669Z,100.00
2022-08-10T00:01:11.702Z,100.00
2022-08-10T00:02:11.680Z,100.00
2022-08-10T00:03:11.685Z,100.00
2022-08-10T00:04:21.063Z,100.00
2022-08-10T00:05:11.665Z,100.00
2022-08-10T00:06:11.690Z,100.00
2022-08-10T00:07:11.670Z,100.00
2022-08-10T00:08:11.688Z,100.00
2022-08-10T00:09:11.682Z,100.00
2022-08-10T00:10:11.705Z,100.00
2022-08-10T00:11:16.782Z,100.00
2022-08-10T00:12:11.690Z,100.00
2022-08-10T00:13:11.724Z,100.00
2022-08-10T00:14:11.679Z,100.00
2022-08-10T00:15:11.707Z,100.00
2022-08-10T00:16:11.709Z,100.00
2022-08-10T00:17:11.690Z,100.00
2022-08-10T00:18:11.724Z,100.00
2022-08-10T00:19:11.709Z,100.00
2022-08-10T00:20:11.692Z,100.00
2022-08-10T00:21:11.689Z,100.00
2022-08-10T00:22:11.699Z,100.00
2022-08-10T00:23:11.711Z,100.00
2022-08-10T00:24:11.692Z,100.00
2022-08-10T00:25:11.705Z,100.00
2022-08-10T00:26:11.714Z,100.00
2022-08-10T00:28:00.720Z,100.00
2022-08-10T00:28:11.707Z,100.00
2022-08-10T00:29:12.005Z,100.00
2022-08-10T00:30:11.701Z,100.00
2022-08-10T00:31:11.703Z,100.00
2022-08-10T00:32:11.719Z,100.00
2022-08-10T00:33:11.724Z,100.00
2022-08-10T00:34:11.718Z,100.00
2022-08-10T00:35:11.721Z,100.00
2022-08-10T00:36:11.722Z,100.00
2022-08-10T00:37:11.714Z,100.00
2022-08-10T00:38:11.707Z,100.00
2022-08-10T00:39:15.889Z,100.00
2022-08-10T00:40:11.716Z,100.00
2022-08-10T00:41:11.718Z,100.00
2022-08-10T00:42:11.707Z,100.00
2022-08-10T00:43:11.753Z,100.00
2022-08-10T00:44:11.704Z,100.00
2022-08-10T00:45:11.722Z,100.00
2022-08-10T00:46:11.725Z,100.00
2022-08-10T00:47:35.336Z,100.00
2022-08-10T00:48:11.731Z,100.00
2022-08-10T00:49:11.734Z,100.00
2022-08-10T00:50:11.725Z,100.00
2022-08-10T00:51:11.743Z,100.00
2022-08-10T00:52:11.714Z,100.00
2022-08-10T00:53:11.742Z,100.00
2022-08-10T00:54:23.922Z,100.00
2022-08-10T00:55:11.725Z,100.00
2022-08-10T00:57:14.782Z,100.00
2022-08-10T00:57:17.575Z,100.00
2022-08-10T00:58:11.758Z,100.00
2022-08-10T00:59:11.736Z,100.00
2022-08-10T01:00:11.745Z,100.00
2022-08-10T01:02:07.691Z,100.00
2022-08-10T01:02:11.936Z,100.00
2022-08-10T01:03:11.748Z,100.00
2022-08-10T01:04:36.369Z,100.00
2022-08-10T01:05:11.777Z,100.00
2022-08-10T01:06:15.234Z,100.00
2022-08-10T01:07:11.765Z,100.00
2022-08-10T01:08:11.780Z,100.00
2022-08-10T01:09:11.733Z,100.00
2022-08-10T01:10:11.749Z,100.00
2022-08-10T01:12:31.430Z,100.00
2022-08-10T01:12:39.888Z,100.00
2022-08-10T01:13:11.758Z,100.00
2022-08-10T01:14:11.751Z,100.00
2022-08-10T01:15:11.758Z,100.00
2022-08-10T01:16:14.022Z,100.00
2022-08-10T01:17:11.749Z,100.00
2022-08-10T01:18:11.771Z,100.00
2022-08-10T01:19:11.773Z,100.00
2022-08-10T01:20:11.773Z,100.00
2022-08-10T01:21:11.772Z,100.00
2022-08-10T01:22:11.765Z,100.00
2022-08-10T01:23:11.778Z,100.00
2022-08-10T01:24:11.786Z,100.00
2022-08-10T01:25:11.775Z,100.00
2022-08-10T01:26:30.695Z,100.00
2022-08-10T01:27:11.776Z,100.00
2022-08-10T01:28:11.794Z,100.00
2022-08-10T01:29:11.777Z,100.00
2022-08-10T01:30:11.825Z,100.00
2022-08-10T01:31:11.785Z,100.00
2022-08-10T01:32:11.790Z,100.00
2022-08-10T01:33:11.799Z,100.00
2022-08-10T01:34:11.781Z,100.00
2022-08-10T01:35:11.785Z,100.00
2022-08-10T01:36:11.812Z,100.00
2022-08-10T01:37:11.777Z,100.00
2022-08-10T01:38:11.802Z,100.00
2022-08-10T01:39:11.818Z,100.00
2022-08-10T01:40:11.785Z,100.00
2022-08-10T01:41:11.791Z,100.00
2022-08-10T01:42:11.800Z,100.00
2022-08-10T01:43:11.829Z,100.00
2022-08-10T01:44:11.791Z,100.00
2022-08-10T01:45:11.803Z,100.00
2022-08-10T01:46:11.800Z,100.00
2022-08-10T01:47:11.793Z,100.00
2022-08-10T01:48:16.568Z,100.00
2022-08-10T01:49:11.809Z,100.00
2022-08-10T01:50:11.820Z,100.00
2022-08-10T01:51:11.792Z,100.00
2022-08-10T01:52:11.799Z,100.00
2022-08-10T01:53:11.820Z,100.00
2022-08-10T01:54:13.124Z,100.00
2022-08-10T01:55:11.821Z,100.00
2022-08-10T01:56:11.794Z,100.00
2022-08-10T01:57:11.808Z,100.00
2022-08-10T01:58:11.810Z,100.00
2022-08-10T01:59:11.812Z,100.00
2022-08-10T02:00:11.842Z,100.00
2022-08-10T02:01:16.996Z,100.00
2022-08-10T02:02:11.819Z,100.00
2022-08-10T02:03:11.834Z,100.00
2022-08-10T02:04:11.850Z,100.00
2022-08-10T02:05:11.854Z,100.00
2022-08-10T02:06:11.813Z,100.00
2022-08-10T02:07:11.816Z,100.00
2022-08-10T02:08:11.828Z,100.00
2022-08-10T02:09:11.830Z,100.00
2022-08-10T02:10:11.839Z,100.00
2022-08-10T02:11:11.829Z,100.00
2022-08-10T02:12:11.814Z,100.00
2022-08-10T02:13:11.844Z,100.00
2022-08-10T02:14:11.846Z,100.00
2022-08-10T02:15:11.843Z,100.00
2022-08-10T02:16:11.835Z,100.00
2022-08-10T02:17:59.323Z,100.00
2022-08-10T02:18:11.864Z,100.00
2022-08-10T02:19:12.007Z,100.00
2022-08-10T02:20:31.869Z,100.00
2022-08-10T02:21:11.834Z,100.00
2022-08-10T02:22:37.920Z,100.00
2022-08-10T02:23:11.861Z,100.00
2022-08-10T02:24:11.836Z,100.00
2022-08-10T02:25:39.547Z,100.00
2022-08-10T02:26:11.866Z,100.00
2022-08-10T02:27:11.854Z,100.00
2022-08-10T02:28:11.873Z,100.00
2022-08-10T02:29:11.841Z,100.00
2022-08-10T02:30:11.856Z,100.00
2022-08-10T02:31:12.144Z,100.00
2022-08-10T02:32:11.861Z,100.00
2022-08-10T02:33:11.844Z,100.00
2022-08-10T02:34:11.855Z,100.00
2022-08-10T02:35:22.057Z,100.00
2022-08-10T02:36:11.845Z,100.00
2022-08-10T02:37:13.453Z,100.00
2022-08-10T02:38:11.871Z,100.00
2022-08-10T02:39:11.903Z,100.00
2022-08-10T02:45:03.527Z,100.00
2022-08-10T02:45:13.461Z,100.00
2022-08-10T02:45:14.245Z,100.00
2022-08-10T02:45:14.469Z,100.00
2022-08-10T02:45:20.984Z,100.00
2022-08-10T02:45:25.475Z,100.00
2022-08-10T02:46:11.871Z,100.00
2022-08-10T02:47:11.878Z,100.00
2022-08-10T02:48:11.894Z,100.00
2022-08-10T02:49:11.856Z,100.00
2022-08-10T02:50:11.873Z,100.00
2022-08-10T02:51:11.867Z,100.00
2022-08-10T02:52:11.865Z,100.00
2022-08-10T02:53:51.662Z,100.00
2022-08-10T02:54:11.876Z,100.00
2022-08-10T02:55:17.864Z,100.00
2022-08-10T02:56:11.851Z,100.00
2022-08-10T02:57:11.874Z,100.00
2022-08-10T02:58:15.258Z,100.00
2022-08-10T02:59:11.880Z,100.00
2022-08-10T03:00:11.882Z,100.00
2022-08-10T03:01:11.907Z,100.00
2022-08-10T03:02:11.884Z,100.00
2022-08-10T03:03:11.901Z,100.00
2022-08-10T03:04:11.895Z,100.00
2022-08-10T03:05:11.905Z,100.00
2022-08-10T03:06:11.923Z,100.00
2022-08-10T03:07:11.888Z,100.00
2022-08-10T03:08:11.891Z,100.00
2022-08-10T03:09:11.890Z,100.00
2022-08-10T03:10:13.369Z,100.00
2022-08-10T03:11:11.910Z,100.00
2022-08-10T03:12:35.126Z,100.00
2022-08-10T03:13:11.936Z,100.00
2022-08-10T03:14:11.896Z,100.00
2022-08-10T03:15:15.736Z,100.00
2022-08-10T03:16:11.916Z,100.00
2022-08-10T03:17:11.912Z,100.00
2022-08-10T03:18:11.924Z,100.00
2022-08-10T03:20:35.413Z,100.00
2022-08-10T03:20:38.245Z,100.00
2022-08-10T03:21:12.100Z,100.00
2022-08-10T03:22:11.915Z,100.00
2022-08-10T03:23:11.926Z,100.00
2022-08-10T03:24:18.792Z,100.00
2022-08-10T03:25:11.909Z,100.00
2022-08-10T03:26:11.914Z,100.00
2022-08-10T03:27:11.918Z,100.00
2022-08-10T03:28:11.926Z,100.00
2022-08-10T03:29:11.906Z,100.00
2022-08-10T03:30:28.443Z,100.00
2022-08-10T03:31:11.928Z,100.00
2022-08-10T03:32:11.920Z,100.00
2022-08-10T03:33:11.919Z,100.00
2022-08-10T03:34:22.270Z,100.00
2022-08-10T03:35:11.926Z,100.00
2022-08-10T03:36:42.401Z,100.00
2022-08-10T03:37:11.932Z,100.00
2022-08-10T03:38:11.952Z,100.00
2022-08-10T03:39:11.971Z,100.00
2022-08-10T03:40:11.933Z,100.00
2022-08-10T03:41:15.948Z,100.00
2022-08-10T03:42:11.927Z,100.00
2022-08-10T03:43:11.943Z,100.00
2022-08-10T03:44:11.940Z,100.00
2022-08-10T03:45:11.931Z,100.00
2022-08-10T03:46:11.937Z,100.00
2022-08-10T03:47:15.278Z,100.00
2022-08-10T03:48:11.957Z,100.00
2022-08-10T03:49:11.944Z,100.00
2022-08-10T03:50:45.448Z,100.00
2022-08-10T03:51:11.967Z,100.00
2022-08-10T03:52:11.938Z,100.00
2022-08-10T03:53:24.215Z,100.00
2022-08-10T03:54:11.940Z,100.00
2022-08-10T03:55:11.951Z,100.00
2022-08-10T03:56:26.851Z,100.00
2022-08-10T03:57:11.943Z,100.00
2022-08-10T03:58:11.983Z,100.00
2022-08-10T03:59:11.956Z,100.00
2022-08-10T04:00:11.956Z,100.00
2022-08-10T04:01:12.013Z,100.00
2022-08-10T04:02:46.823Z,100.00
2022-08-10T04:03:11.984Z,100.00
2022-08-10T04:04:14.523Z,100.00
2022-08-10T04:05:11.944Z,100.00
2022-08-10T04:06:11.943Z,100.00
2022-08-10T04:07:11.959Z,100.00
2022-08-10T04:08:11.974Z,100.00
2022-08-10T04:09:11.958Z,100.00
2022-08-10T04:10:13.074Z,100.00
2022-08-10T04:11:11.965Z,100.00
2022-08-10T04:12:11.970Z,100.00
2022-08-10T04:13:11.984Z,100.00
2022-08-10T04:14:38.787Z,100.00
2022-08-10T04:15:11.969Z,100.00
2022-08-10T04:16:11.964Z,100.00
2022-08-10T04:17:14.042Z,100.00
2022-08-10T04:18:11.959Z,100.00
2022-08-10T04:19:11.972Z,100.00
2022-08-10T04:20:11.961Z,100.00
2022-08-10T04:21:11.976Z,100.00
2022-08-10T04:22:11.967Z,100.00
2022-08-10T04:23:12.002Z,100.00
2022-08-10T04:24:11.979Z,100.00
2022-08-10T04:25:11.985Z,100.00
2022-08-10T04:26:11.983Z,100.00
2022-08-10T04:27:11.973Z,100.00
2022-08-10T04:28:11.988Z,100.00
2022-08-10T04:29:11.994Z,100.00
2022-08-10T04:30:11.986Z,100.00
2022-08-10T04:31:11.993Z,100.00
2022-08-10T04:32:12.007Z,100.00
2022-08-10T04:33:12.009Z,100.00
2022-08-10T04:34:11.989Z,100.00
2022-08-10T04:35:12.016Z,100.00
2022-08-10T04:36:11.993Z,100.00
2022-08-10T04:37:11.990Z,100.00
2022-08-10T04:38:12.001Z,100.00
2022-08-10T04:39:12.045Z,100.00
2022-08-10T04:40:28.401Z,100.00
2022-08-10T04:41:11.986Z,100.00
2022-08-10T04:42:12.017Z,100.00
2022-08-10T04:43:13.144Z,100.00
2022-08-10T04:44:11.996Z,100.00
2022-08-10T04:45:11.981Z,100.00
2022-08-10T04:46:43.085Z,100.00
2022-08-10T04:47:11.986Z,100.00
2022-08-10T04:48:43.198Z,100.00
2022-08-10T04:49:52.140Z,100.00
2022-08-10T04:50:12.013Z,100.00
2022-08-10T04:51:16.967Z,100.00
2022-08-10T04:52:12.009Z,100.00
2022-08-10T04:53:12.028Z,100.00
2022-08-10T04:54:14.230Z,100.00
2022-08-10T04:55:12.003Z,100.00
2022-08-10T04:56:12.010Z,100.00
2022-08-10T04:57:12.028Z,100.00
2022-08-10T04:58:12.047Z,100.00
2022-08-10T04:59:12.012Z,100.00
2022-08-10T05:00:18.103Z,100.00
2022-08-10T05:01:12.104Z,100.00
2022-08-10T05:02:30.088Z,100.00
2022-08-10T05:03:12.031Z,100.00
2022-08-10T05:04:35.507Z,100.00
2022-08-10T05:05:12.033Z,100.00
2022-08-10T05:06:12.010Z,100.00
2022-08-10T05:07:15.825Z,100.00
2022-08-10T05:08:12.049Z,100.00
2022-08-10T05:09:12.042Z,100.00
2022-08-10T05:10:13.578Z,100.00
2022-08-10T05:11:12.045Z,100.00
2022-08-10T05:12:12.031Z,100.00
2022-08-10T05:13:12.054Z,100.00
2022-08-10T05:14:12.038Z,100.00
2022-08-10T05:15:12.036Z,100.00
2022-08-10T05:16:12.067Z,100.00
2022-08-10T05:17:12.049Z,100.00
2022-08-10T05:18:12.057Z,100.00
2022-08-10T05:19:12.050Z,100.00
2022-08-10T05:20:12.050Z,100.00
2022-08-10T05:21:12.047Z,100.00
2022-08-10T05:22:12.059Z,100.00
2022-08-10T05:23:12.054Z,100.00
2022-08-10T05:24:12.049Z,100.00
2022-08-10T05:25:12.037Z,100.00
2022-08-10T05:26:12.042Z,100.00
2022-08-10T05:27:12.046Z,100.00
2022-08-10T05:28:12.072Z,100.00
2022-08-10T05:29:12.053Z,100.00
2022-08-10T05:30:12.056Z,100.00
2022-08-10T05:31:12.068Z,100.00
2022-08-10T05:32:12.193Z,100.00
2022-08-10T05:33:12.205Z,100.00
2022-08-10T05:34:20.484Z,100.00
2022-08-10T05:35:12.229Z,100.00
2022-08-10T05:36:12.234Z,100.00
2022-08-10T05:38:11.948Z,100.00
2022-08-10T05:38:14.708Z,100.00
2022-08-10T05:39:12.225Z,100.00
2022-08-10T05:40:12.204Z,100.00
2022-08-10T05:41:12.203Z,100.00
2022-08-10T05:42:12.228Z,100.00
2022-08-10T05:43:12.237Z,100.00
2022-08-10T05:44:12.229Z,100.00
2022-08-10T05:45:12.232Z,100.00
2022-08-10T05:46:18.233Z,100.00
2022-08-10T05:47:12.870Z,100.00
2022-08-10T05:48:53.811Z,100.00
2022-08-10T05:49:12.228Z,100.00
2022-08-10T05:50:12.208Z,100.00
2022-08-10T05:51:12.260Z,100.00
2022-08-10T05:52:12.220Z,100.00
2022-08-10T05:54:02.964Z,100.00
2022-08-10T05:54:12.256Z,100.00
2022-08-10T05:55:12.229Z,100.00
2022-08-10T05:56:12.245Z,100.00
2022-08-10T05:57:12.241Z,100.00
2022-08-10T05:58:12.242Z,100.00
2022-08-10T05:59:12.229Z,100.00
2022-08-10T06:00:34.113Z,100.00
2022-08-10T06:01:12.255Z,100.00
2022-08-10T06:02:33.349Z,100.00
2022-08-10T06:03:12.238Z,100.00
2022-08-10T06:04:12.228Z,100.00
2022-08-10T06:05:12.237Z,100.00
2022-08-10T06:06:12.240Z,100.00
2022-08-10T06:07:13.029Z,100.00
2022-08-10T06:08:12.260Z,100.00
2022-08-10T06:09:12.242Z,100.00
2022-08-10T06:10:12.243Z,100.00
2022-08-10T06:12:25.694Z,100.00
2022-08-10T06:12:26.063Z,100.00
2022-08-10T06:13:19.355Z,100.00
2022-08-10T06:14:12.970Z,100.00
2022-08-10T06:15:22.069Z,100.00
2022-08-10T06:16:12.269Z,100.00
2022-08-10T06:17:12.255Z,100.00
2022-08-10T06:18:12.273Z,100.00
2022-08-10T06:19:15.033Z,100.00
2022-08-10T06:20:12.257Z,100.00
2022-08-10T06:21:12.267Z,100.00
2022-08-10T06:22:12.265Z,100.00
2022-08-10T06:23:12.254Z,100.00
2022-08-10T06:24:12.259Z,100.00
2022-08-10T06:25:51.089Z,100.00
2022-08-10T06:26:14.122Z,100.00
2022-08-10T06:27:12.257Z,100.00
2022-08-10T06:28:12.280Z,100.00
2022-08-10T06:29:12.275Z,100.00
2022-08-10T06:30:20.352Z,100.00
2022-08-10T06:31:12.275Z,100.00
2022-08-10T06:32:12.277Z,100.00
2022-08-10T06:33:12.289Z,100.00
2022-08-10T06:34:12.278Z,100.00
2022-08-10T06:35:12.269Z,100.00
2022-08-10T06:36:12.264Z,100.00
2022-08-10T06:37:12.288Z,100.00
2022-08-10T06:38:12.264Z,100.00
2022-08-10T06:39:32.306Z,100.00
2022-08-10T06:40:12.417Z,100.00
2022-08-10T06:41:15.618Z,100.00
2022-08-10T06:42:14.601Z,100.00
2022-08-10T06:43:12.306Z,100.00
2022-08-10T06:44:12.285Z,100.00
2022-08-10T06:45:12.280Z,100.00
2022-08-10T06:46:12.289Z,100.00
2022-08-10T06:47:12.294Z,100.00
2022-08-10T06:48:12.305Z,100.00
2022-08-10T06:49:12.279Z,100.00
2022-08-10T06:50:12.302Z,100.00
2022-08-10T06:51:12.282Z,100.00
2022-08-10T06:52:17.716Z,100.00
2022-08-10T06:53:12.299Z,100.00
2022-08-10T06:54:12.290Z,100.00
2022-08-10T06:55:12.317Z,100.00
2022-08-10T06:56:12.290Z,100.00
2022-08-10T06:57:18.408Z,100.00
2022-08-10T06:58:12.309Z,92.98
2022-08-10T06:59:21.122Z,94.74
2022-08-10T07:00:14.097Z,93.68
2022-08-10T07:01:12.398Z,92.92
2022-08-10T07:02:12.306Z,90.77
2022-08-10T07:03:12.326Z,84.59
2022-08-10T07:04:12.307Z,82.28
2022-08-10T07:05:12.309Z,81.93
2022-08-10T07:06:12.320Z,76.69
2022-08-10T07:07:12.309Z,78.79
2022-08-10T07:08:12.330Z,80.40
2022-08-10T07:09:12.339Z,74.26
2022-08-10T07:10:12.313Z,78.38
2022-08-10T07:11:12.325Z,76.57
2022-08-10T07:12:12.333Z,74.43
2022-08-10T07:13:12.384Z,75.37
2022-08-10T07:14:17.120Z,70.14
2022-08-10T07:15:12.328Z,69.18
2022-08-10T07:16:12.362Z,67.94
2022-08-10T07:17:15.334Z,67.41
2022-08-10T07:18:12.349Z,66.85
2022-08-10T07:19:12.324Z,65.25
2022-08-10T07:20:12.337Z,66.85
2022-08-10T07:21:12.344Z,66.13
2022-08-10T07:23:08.738Z,63.03
2022-08-10T07:23:57.015Z,62.87
2022-08-10T07:24:12.353Z,63.10
2022-08-10T07:25:12.365Z,63.73
2022-08-10T07:26:12.335Z,65.48
2022-08-10T07:27:12.339Z,65.85
2022-08-10T07:28:12.334Z,62.26
2022-08-10T07:29:26.794Z,60.96
2022-08-10T07:30:12.341Z,60.47
2022-08-10T07:31:36.040Z,58.20
2022-08-10T07:32:12.365Z,57.92
2022-08-10T07:33:12.360Z,56.70
2022-08-10T07:34:12.364Z,53.47
2022-08-10T07:35:12.348Z,52.63
2022-08-10T07:36:12.351Z,51.38
2022-08-10T07:37:12.357Z,51.51
2022-08-10T07:38:12.374Z,50.26
2022-08-10T07:39:12.421Z,48.22
2022-08-10T07:40:12.404Z,49.17
2022-08-10T07:41:12.356Z,48.47
2022-08-10T07:42:12.378Z,46.46
2022-08-10T07:43:12.371Z,46.57
2022-08-10T07:44:12.385Z,48.20
2022-08-10T07:45:12.363Z,48.07
2022-08-10T07:46:12.391Z,48.51
2022-08-10T07:47:12.386Z,47.12
2022-08-10T07:48:12.387Z,47.64
2022-08-10T07:49:17.040Z,47.32
2022-08-10T07:50:12.381Z,47.32
2022-08-10T07:51:12.378Z,46.69
2022-08-10T07:52:12.379Z,46.74
2022-08-10T07:53:12.406Z,46.01
2022-08-10T07:54:12.356Z,45.18
2022-08-10T07:55:12.373Z,46.29
2022-08-10T07:56:26.380Z,46.13
2022-08-10T07:57:12.406Z,46.21
2022-08-10T07:58:12.390Z,43.75
2022-08-10T07:59:12.405Z,46.40
2022-08-10T08:00:12.383Z,45.20
2022-08-10T08:01:12.393Z,46.08
2022-08-10T08:02:12.462Z,45.47
2022-08-10T08:03:13.289Z,45.94
2022-08-10T08:04:12.396Z,45.68
2022-08-10T08:05:12.414Z,46.09
2022-08-10T08:06:12.444Z,44.51
2022-08-10T08:07:12.411Z,45.43
2022-08-10T08:08:12.399Z,44.60
2022-08-10T08:09:12.415Z,44.85
2022-08-10T08:10:12.410Z,44.52
2022-08-10T08:11:25.479Z,44.24
2022-08-10T08:12:12.399Z,44.02
2022-08-10T08:13:12.413Z,43.47
2022-08-10T08:14:12.419Z,42.48
2022-08-10T08:16:17.456Z,41.66
2022-08-10T08:16:18.437Z,42.76
2022-08-10T08:17:12.412Z,40.61
2022-08-10T08:18:12.431Z,40.16
2022-08-10T08:19:35.922Z,40.98
2022-08-10T08:20:12.457Z,41.27
2022-08-10T08:24:02.436Z,39.34
2022-08-10T08:24:10.786Z,38.68
2022-08-10T08:24:14.787Z,39.07
2022-08-10T08:24:32.935Z,38.94
2022-08-10T08:25:14.355Z,39.67
2022-08-10T08:26:12.424Z,39.86
2022-08-10T08:27:12.412Z,40.16
2022-08-10T08:28:12.464Z,39.14
2022-08-10T08:29:12.450Z,38.39
2022-08-10T08:30:12.442Z,37.00
2022-08-10T08:31:12.434Z,37.85
2022-08-10T08:32:12.429Z,37.50
2022-08-10T08:33:12.446Z,37.98
2022-08-10T08:34:12.493Z,40.27
2022-08-10T08:35:12.458Z,40.37
2022-08-10T08:36:12.429Z,40.66
2022-08-10T08:37:12.453Z,40.16
2022-08-10T08:38:30.167Z,40.76
2022-08-10T08:39:12.539Z,39.84
2022-08-10T08:40:12.444Z,37.58
2022-08-10T08:41:12.461Z,38.65
2022-08-10T08:42:12.447Z,36.45
2022-08-10T08:43:12.466Z,37.86
2022-08-10T08:44:12.459Z,38.93
2022-08-10T08:45:12.451Z,36.69
2022-08-10T08:46:12.457Z,38.24
2022-08-10T08:48:03.134Z,37.52
2022-08-10T08:48:12.496Z,35.48
2022-08-10T08:49:12.476Z,35.40
2022-08-10T08:50:12.487Z,36.11
2022-08-10T08:51:12.461Z,36.28
2022-08-10T08:52:18.069Z,36.17
2022-08-10T08:53:21.389Z,37.71
2022-08-10T08:54:12.469Z,37.94
2022-08-10T08:55:58.077Z,37.27
2022-08-10T08:56:12.464Z,37.21
2022-08-10T08:57:12.477Z,37.02
2022-08-10T08:58:12.509Z,36.77
2022-08-10T08:59:12.479Z,34.99
2022-08-10T09:00:12.721Z,35.87
2022-08-10T09:01:12.504Z,35.71
2022-08-10T09:02:12.529Z,35.76
2022-08-10T09:03:12.512Z,35.36
2022-08-10T09:04:20.098Z,34.98
2022-08-10T09:05:12.489Z,37.77
2022-08-10T09:06:12.487Z,37.71
2022-08-10T09:08:00.393Z,35.46
2022-08-10T09:08:12.503Z,34.82
2022-08-10T09:09:12.495Z,34.88
2022-08-10T09:10:12.491Z,34.38
2022-08-10T09:11:12.510Z,35.68
2022-08-10T09:12:12.508Z,34.31
2022-08-10T09:13:12.513Z,34.62
2022-08-10T09:14:12.492Z,34.47
2022-08-10T09:15:12.511Z,34.65
2022-08-10T09:16:12.498Z,34.42
2022-08-10T09:17:12.523Z,33.93
2022-08-10T09:18:12.520Z,34.01
2022-08-10T09:19:19.441Z,34.36
2022-08-10T09:20:12.515Z,34.81
2022-08-10T09:21:12.507Z,33.96
2022-08-10T09:22:17.522Z,34.79
2022-08-10T09:23:12.521Z,33.59
2022-08-10T09:24:12.521Z,32.93
2022-08-10T09:25:12.513Z,32.39
2022-08-10T09:26:12.510Z,32.98
2022-08-10T09:27:12.536Z,32.34
2022-08-10T09:28:12.534Z,33.05
2022-08-10T09:29:13.469Z,33.23
2022-08-10T09:30:12.528Z,33.11
2022-08-10T09:31:22.427Z,32.75
2022-08-10T09:36:16.126Z,32.86
2022-08-10T09:36:24.757Z,32.83
2022-08-10T09:36:25.390Z,32.41
2022-08-10T09:36:25.997Z,33.57
2022-08-10T09:36:26.784Z,33.19
2022-08-10T09:37:12.531Z,33.28
2022-08-10T09:38:12.547Z,33.18
2022-08-10T09:40:05.913Z,32.54
2022-08-10T09:41:00.191Z,32.42
2022-08-10T09:41:13.552Z,33.01
2022-08-10T09:42:14.944Z,32.78
2022-08-10T09:43:25.159Z,32.32
2022-08-10T09:44:12.536Z,32.57
2022-08-10T09:45:12.537Z,32.65
2022-08-10T09:46:12.553Z,33.22
2022-08-10T09:47:12.544Z,32.18
2022-08-10T09:48:12.560Z,31.76
2022-08-10T09:49:17.281Z,32.18
2022-08-10T09:50:12.551Z,31.19
2022-08-10T09:51:45.350Z,30.78
2022-08-10T09:52:12.570Z,31.60
2022-08-10T09:53:12.558Z,31.47
2022-08-10T09:54:12.547Z,31.02
2022-08-10T09:55:12.560Z,31.33
2022-08-10T09:56:18.465Z,31.33
2022-08-10T09:57:54.834Z,31.18
2022-08-10T09:58:12.595Z,31.18
2022-08-10T09:59:56.660Z,30.58
2022-08-10T10:00:12.587Z,31.19
2022-08-10T10:01:58.311Z,31.51
2022-08-10T10:02:12.580Z,32.53
2022-08-10T10:03:12.649Z,32.13
2022-08-10T10:04:12.580Z,34.92
2022-08-10T10:05:12.580Z,30.96
2022-08-10T10:06:12.595Z,30.52
2022-08-10T10:07:12.575Z,30.80
2022-08-10T10:08:12.604Z,29.82
2022-08-10T10:09:12.592Z,29.15
2022-08-10T10:10:12.595Z,30.65
2022-08-10T10:11:12.617Z,30.37
2022-08-10T10:12:12.606Z,30.15
2022-08-10T10:13:12.612Z,30.01
2022-08-10T10:14:12.793Z,29.21
2022-08-10T10:15:12.615Z,30.04
2022-08-10T10:16:12.611Z,29.37
2022-08-10T10:17:12.578Z,28.82
2022-08-10T10:18:12.604Z,29.35
2022-08-10T10:19:12.612Z,30.10
2022-08-10T10:20:12.670Z,29.99
2022-08-10T10:21:51.262Z,29.51
2022-08-10T10:22:12.595Z,29.16
2022-08-10T10:23:12.628Z,29.61
2022-08-10T10:24:22.426Z,29.36
2022-08-10T10:25:20.734Z,30.42
2022-08-10T10:26:18.334Z,30.26
2022-08-10T10:27:16.550Z,31.50
2022-08-10T10:28:12.641Z,29.71
2022-08-10T10:29:37.433Z,29.44
2022-08-10T10:30:12.671Z,30.67
2022-08-10T10:31:16.891Z,29.32
2022-08-10T10:32:12.637Z,29.12
2022-08-10T10:33:13.257Z,29.44
2022-08-10T10:34:12.637Z,30.09
2022-08-10T10:35:12.608Z,29.93
2022-08-10T10:36:12.639Z,28.97
2022-08-10T10:37:12.616Z,29.08
2022-08-10T10:38:12.683Z,29.47
2022-08-10T10:39:12.698Z,30.70
2022-08-10T10:40:12.729Z,30.96
2022-08-10T10:41:12.636Z,28.99
2022-08-10T10:42:28.951Z,29.06
2022-08-10T10:43:12.662Z,28.64
2022-08-10T10:44:12.639Z,28.82
2022-08-10T10:45:12.623Z,29.46
2022-08-10T10:46:12.649Z,29.14
2022-08-10T10:47:12.638Z,29.98
2022-08-10T10:48:23.772Z,29.51
2022-08-10T10:49:12.653Z,28.30
2022-08-10T10:50:12.700Z,28.32
2022-08-10T10:51:12.655Z,29.16
2022-08-10T10:52:12.650Z,27.05
2022-08-10T10:53:12.688Z,26.59
2022-08-10T10:54:12.661Z,28.24
2022-08-10T10:55:12.665Z,29.25
2022-08-10T10:56:14.273Z,27.71
2022-08-10T10:57:12.667Z,28.18
2022-08-10T10:58:12.689Z,26.75
2022-08-10T10:59:53.423Z,27.72
2022-08-10T11:00:12.711Z,29.65
2022-08-10T11:01:12.695Z,28.67
2022-08-10T11:02:12.653Z,29.93
2022-08-10T11:03:12.687Z,27.41
2022-08-10T11:04:12.665Z,26.84
2022-08-10T11:05:12.685Z,29.40
2022-08-10T11:06:12.672Z,27.61
2022-08-10T11:07:13.125Z,27.85
2022-08-10T11:08:14.631Z,26.85
2022-08-10T11:10:08.942Z,27.96
2022-08-10T11:10:33.024Z,26.88
2022-08-10T11:11:20.365Z,26.26
2022-08-10T11:12:13.070Z,26.58
2022-08-10T11:14:24.341Z,26.55
2022-08-10T11:14:26.403Z,26.31
2022-08-10T11:15:12.769Z,26.04
2022-08-10T11:16:12.757Z,26.06
2022-08-10T11:17:12.775Z,26.67
2022-08-10T11:18:14.023Z,26.71
2022-08-10T11:19:12.779Z,26.65
2022-08-10T11:20:12.777Z,27.55
2022-08-10T11:21:13.576Z,26.93
2022-08-10T11:22:16.293Z,26.40
2022-08-10T11:23:12.790Z,26.52
2022-08-10T11:24:42.968Z,25.74
2022-08-10T11:25:12.771Z,25.85
2022-08-10T11:26:12.783Z,27.39
2022-08-10T11:27:21.651Z,29.02
2022-08-10T11:28:12.802Z,27.04
2022-08-10T11:29:12.798Z,28.05
2022-08-10T11:30:12.794Z,27.33
2022-08-10T11:31:12.779Z,26.87
2022-08-10T11:32:20.661Z,26.75
2022-08-10T11:33:12.812Z,26.94
2022-08-10T11:34:46.940Z,26.08
2022-08-10T11:35:13.067Z,25.36
2022-08-10T11:36:12.813Z,25.20
2022-08-10T11:37:12.797Z,25.74
2022-08-10T11:38:31.469Z,26.13
2022-08-10T11:39:14.667Z,26.87
2022-08-10T11:40:12.885Z,26.90
2022-08-10T11:42:09.401Z,26.20
2022-08-10T11:42:23.226Z,27.45
2022-08-10T11:43:12.815Z,28.00
2022-08-10T11:44:12.819Z,27.82
2022-08-10T11:45:12.822Z,25.94
2022-08-10T11:46:19.348Z,28.58
2022-08-10T11:47:12.821Z,26.69
2022-08-10T11:48:12.846Z,28.16
2022-08-10T11:49:12.825Z,28.25
2022-08-10T11:50:12.811Z,27.40
2022-08-10T11:51:12.802Z,28.55
2022-08-10T11:52:12.828Z,26.63
2022-08-10T11:53:12.844Z,26.68
2022-08-10T11:54:12.819Z,28.38
2022-08-10T11:55:12.817Z,27.18
2022-08-10T11:56:12.826Z,25.91
2022-08-10T11:57:12.818Z,25.82
2022-08-10T11:58:12.863Z,26.27
2022-08-10T11:59:16.959Z,26.29
2022-08-10T12:00:12.856Z,26.52
2022-08-10T12:01:12.855Z,26.69
2022-08-10T12:02:12.914Z,25.76
2022-08-10T12:03:12.858Z,27.22
2022-08-10T12:04:12.832Z,27.46
2022-08-10T12:05:12.847Z,28.30
2022-08-10T12:06:12.845Z,28.47
2022-08-10T12:10:04.278Z,26.34
2022-08-10T12:10:05.377Z,25.61
2022-08-10T12:10:07.220Z,26.03
2022-08-10T12:10:13.834Z,25.71
2022-08-10T12:11:12.856Z,26.71
2022-08-10T12:12:12.860Z,27.05
2022-08-10T12:13:12.879Z,25.49
2022-08-10T12:14:22.326Z,26.64
2022-08-10T12:15:12.885Z,26.51
2022-08-10T12:16:12.871Z,25.28
2022-08-10T12:17:12.886Z,27.38
2022-08-10T12:18:12.868Z,24.90
2022-08-10T12:19:12.871Z,25.00
2022-08-10T12:20:12.864Z,25.33
2022-08-10T12:21:14.265Z,25.79
2022-08-10T12:22:12.877Z,24.54
2022-08-10T12:23:12.886Z,23.28
2022-08-10T12:24:12.888Z,25.99
2022-08-10T12:25:55.062Z,25.34
2022-08-10T12:26:12.878Z,24.68
2022-08-10T12:27:13.226Z,24.72
2022-08-10T12:28:12.887Z,23.76
2022-08-10T12:29:12.900Z,23.92
2022-08-10T12:30:12.871Z,24.95
2022-08-10T12:31:12.900Z,25.99
2022-08-10T12:32:12.874Z,25.48
2022-08-10T12:33:12.899Z,25.77
2022-08-10T12:34:12.910Z,27.45
2022-08-10T12:35:12.894Z,27.02
2022-08-10T12:36:18.351Z,25.01
2022-08-10T12:37:12.896Z,26.07
2022-08-10T12:38:12.900Z,24.86
2022-08-10T12:39:12.963Z,24.40